Time;durP1;ratioP1;P1;durP2;ratioP2;P2;SDS_P1;SDS_P2;PMS_P1;PMS_P2;Temp;Humidity;BMP_temperature;BMP_pressure;BME280_temperature;BME280_humidity;BME280_pressure;Samples;Min_cycle;Max_cycle;Signal;HPM_P1;HPM_P2
2023/05/27 00:00:23;;;;;;;;;;;;;;;21.41;65.54;98906.66;2088832;28;20813;-48
2023/05/27 00:01:24;;;;;;;;;;;;;;;21.39;65.59;98903.34;2088894;28;20282;-47
2023/05/27 00:02:25;;;;;;;;;;;;;;;21.40;65.56;98899.63;2086596;28;20367;-46
2023/05/27 00:03:27;;;;;;;;;;;;;;;21.40;65.52;98905.03;2086315;28;19977;-49
2023/05/27 00:04:27;;;;;;;;;;;;;;;21.39;65.38;98897.94;2089109;28;19920;-49
2023/05/27 00:05:29;;;;;;;;;;;;;;;21.39;65.64;98901.47;2085897;28;20557;-48
2023/05/27 00:06:29;;;;;;;;;;;;;;;21.39;65.63;98904.19;2088102;28;19925;-50
2023/05/27 00:07:31;;;;;;;;;;;;;;;21.40;65.65;98902.31;2087426;28;19986;-50
2023/05/27 00:08:31;;;;;;;;;;;;;;;21.40;65.65;98902.31;2086972;28;19921;-48
2023/05/27 00:09:33;;;;;;;;;;;;;;;21.40;65.54;98899.63;2087153;28;20398;-49
2023/05/27 00:10:33;;;;;;;;;;;;;;;21.39;65.67;98898.78;2084461;28;20279;-47
2023/05/27 00:11:35;;;;;;;;;;;;;;;21.39;65.54;98904.19;2088146;28;19920;-47
2023/05/27 00:12:35;;;;;;;;;;;;;;;21.39;65.48;98896.06;2085532;28;20398;-47
2023/05/27 00:13:37;;;;;;;;;;;;;;;21.39;65.50;98900.66;2088940;28;19924;-49
2023/05/27 00:14:37;;;;;;;;;;;;;;;21.38;65.53;98897.13;2085512;28;20432;-48
2023/05/27 00:15:41;;;;;;;;;;;;;;;21.39;65.58;98892.56;2085474;28;19928;-47
2023/05/27 00:16:41;;;;;;;;;;;;;;;21.39;65.37;98897.94;2087645;28;19920;-46
2023/05/27 00:17:43;;;;;;;;;;;;;;;21.39;65.76;98901.47;2087893;28;19935;-47
2023/05/27 00:18:44;;;;;;;;;;;;;;;21.38;65.59;98902.53;2088440;28;19931;-49
2023/05/27 00:19:47;;;;;;;;;;;;;;;21.38;65.48;98896.31;2088225;28;20376;-48
2023/05/27 00:20:48;;;;;;;;;;;;;;;21.38;65.69;98901.72;2082196;28;20017;-48
2023/05/27 00:21:52;;;;;;;;;;;;;;;21.38;65.58;98904.41;2082707;28;19952;-49
2023/05/27 00:22:52;;;;;;;;;;;;;;;21.37;65.76;98902.75;2085460;28;20111;-46
2023/05/27 00:23:54;;;;;;;;;;;;;;;21.36;65.74;98903.75;2088503;28;19927;-54
2023/05/27 00:24:54;;;;;;;;;;;;;;;21.37;65.46;98900.06;2088349;28;20590;-50
2023/05/27 00:25:55;;;;;;;;;;;;;;;21.38;65.53;98901.72;2084073;28;19936;-47
2023/05/27 00:26:56;;;;;;;;;;;;;;;21.36;65.57;98895.66;2084114;28;19965;-48
2023/05/27 00:27:57;;;;;;;;;;;;;;;21.36;65.60;98899.19;2082015;28;19973;-47
2023/05/27 00:28:58;;;;;;;;;;;;;;;21.36;65.73;98898.34;2085766;28;19976;-47
2023/05/27 00:30:00;;;;;;;;;;;;;;;21.37;65.79;98891.97;2084484;28;19928;-46
2023/05/27 00:31:01;;;;;;;;;;;;;;;21.36;65.62;98892.97;2087795;28;19924;-46
2023/05/27 00:32:04;;;;;;;;;;;;;;;21.37;65.41;98894.66;2085403;28;20011;-50
2023/05/27 00:33:04;;;;;;;;;;;;;;;21.38;65.72;98896.31;2083938;28;19974;-46
2023/05/27 00:34:06;;;;;;;;;;;;;;;21.36;65.70;98898.34;2083197;28;19928;-51
2023/05/27 00:35:06;;;;;;;;;;;;;;;21.36;65.51;98899.19;2084845;28;19936;-48
2023/05/27 00:36:08;;;;;;;;;;;;;;;21.37;65.56;98889.28;2086973;28;19928;-47
2023/05/27 00:37:08;;;;;;;;;;;;;;;21.37;65.62;98889.28;2087460;28;20061;-47
2023/05/27 00:38:10;;;;;;;;;;;;;;;21.37;65.61;98890.09;2086418;28;20377;-51
2023/05/27 00:39:10;;;;;;;;;;;;;;;21.36;65.55;98892.97;2086396;28;19924;-47
2023/05/27 00:40:13;;;;;;;;;;;;;;;21.36;65.60;98891.09;2087513;28;19920;-51
2023/05/27 00:41:13;;;;;;;;;;;;;;;21.35;65.75;98891.31;2086986;28;19924;-47
2023/05/27 00:42:15;;;;;;;;;;;;;;;21.36;65.77;98895.66;2083045;28;19924;-48
2023/05/27 00:43:15;;;;;;;;;;;;;;;21.36;65.81;98887.56;2082183;28;19928;-47
2023/05/27 00:44:17;;;;;;;;;;;;;;;21.37;65.60;98886.56;2079405;28;19924;-51
2023/05/27 00:45:17;;;;;;;;;;;;;;;21.35;65.72;98894.00;2082562;28;20505;-47
2023/05/27 00:46:20;;;;;;;;;;;;;;;21.35;65.59;98885.91;2082591;28;19925;-47
2023/05/27 00:47:20;;;;;;;;;;;;;;;21.34;65.63;98884.25;2084983;28;20702;-51
2023/05/27 00:48:22;;;;;;;;;;;;;;;21.34;65.64;98900.44;2087275;28;20085;-49
2023/05/27 00:49:25;;;;;;;;;;;;;;;21.35;65.62;98891.31;2090095;28;20007;-49
2023/05/27 00:50:26;;;;;;;;;;;;;;;21.34;65.75;98887.78;2085898;28;20347;-51
2023/05/27 00:51:27;;;;;;;;;;;;;;;21.35;65.79;98886.75;2089196;28;19924;-49
2023/05/27 00:52:28;;;;;;;;;;;;;;;21.34;65.53;98885.09;2088297;28;20859;-46
2023/05/27 00:53:31;;;;;;;;;;;;;;;21.34;65.68;98885.09;2088678;28;19920;-50
2023/05/27 00:54:33;;;;;;;;;;;;;;;21.36;65.65;98882.16;2083369;28;21983;-48
2023/05/27 00:55:33;;;;;;;;;;;;;;;21.36;65.74;98876.78;2083405;28;19920;-50
2023/05/27 00:56:35;;;;;;;;;;;;;;;21.36;65.58;98882.16;2083290;28;20871;-49
2023/05/27 00:57:35;;;;;;;;;;;;;;;21.34;65.81;98874.31;2084227;28;19920;-49
2023/05/27 00:58:37;;;;;;;;;;;;;;;21.34;65.68;98874.31;2086824;28;20028;-48
2023/05/27 00:59:37;;;;;;;;;;;;;;;21.36;65.71;98876.78;2088331;28;19925;-49
2023/05/27 01:00:39;;;;;;;;;;;;;;;21.35;65.46;98873.25;2086431;28;19975;-50
2023/05/27 01:01:43;;;;;;;;;;;;;;;21.35;65.54;98877.81;2086902;28;19920;-48
2023/05/27 01:02:44;;;;;;;;;;;;;;;21.36;65.23;98874.91;2089579;28;19969;-47
2023/05/27 01:03:47;;;;;;;;;;;;;;;21.37;65.47;98873.91;2086934;28;19978;-46
2023/05/27 01:04:48;;;;;;;;;;;;;;;21.38;65.34;98874.72;2086353;28;19997;-51
2023/05/27 01:05:50;;;;;;;;;;;;;;;21.36;65.44;98872.19;2086996;28;20462;-48
2023/05/27 01:07:04;;;;;;;;;;;;;;;21.36;65.50;98876.78;2085455;28;19928;-48
2023/05/27 01:08:11;;;;;;;;;;;;;;;21.36;65.79;98874.06;2082850;28;20803;-48
2023/05/27 01:09:20;;;;;;;;;;;;;;;21.35;65.57;98880.53;2086327;28;20603;-50
2023/05/27 01:10:27;;;;;;;;;;;;;;;21.38;65.42;98877.44;2086271;28;19937;-49
2023/05/27 01:11:31;;;;;;;;;;;;;;;21.38;65.53;98877.44;2084838;28;19925;-46
2023/05/27 01:12:36;;;;;;;;;;;;;;;21.38;65.46;98875.53;2086762;28;19928;-46
2023/05/27 01:13:39;;;;;;;;;;;;;;;21.40;65.48;98872.66;2086134;28;20515;-48
2023/05/27 01:14:44;;;;;;;;;;;;;;;21.38;65.61;98880.94;2088404;28;19959;-48
2023/05/27 01:15:46;;;;;;;;;;;;;;;21.40;65.66;98867.25;2084779;28;20428;-47
2023/05/27 01:16:50;;;;;;;;;;;;;;;21.41;65.47;98868.91;2082050;28;20314;-48
2023/05/27 01:17:54;;;;;;;;;;;;;;;21.40;65.54;98868.06;2087265;28;20091;-48
2023/05/27 01:18:59;;;;;;;;;;;;;;;21.38;65.33;98874.72;2089942;28;19967;-47
2023/05/27 01:20:01;;;;;;;;;;;;;;;21.36;65.60;98866.81;2084832;28;19959;-48
2023/05/27 01:21:06;;;;;;;;;;;;;;;21.38;65.55;98867.44;2084882;28;19924;-46
2023/05/27 01:22:07;;;;;;;;;;;;;;;21.38;65.62;98862.06;2083967;28;20302;-50
2023/05/27 01:23:10;;;;;;;;;;;;;;;21.38;65.50;98863.94;2083066;28;20063;-52
2023/05/27 01:24:11;;;;;;;;;;;;;;;21.37;65.47;98867.69;2084145;28;19932;-48
2023/05/27 01:25:12;;;;;;;;;;;;;;;21.37;65.45;98857.72;2085266;28;20516;-46
2023/05/27 01:26:13;;;;;;;;;;;;;;;21.38;65.35;98858.53;2084473;28;19946;-47
2023/05/27 01:27:15;;;;;;;;;;;;;;;21.38;65.54;98861.22;2088017;28;19920;-48
2023/05/27 01:28:16;;;;;;;;;;;;;;;21.40;65.52;98857.28;2086957;28;20413;-49
2023/05/27 01:29:17;;;;;;;;;;;;;;;21.39;65.41;98857.47;2090941;28;19928;-47
2023/05/27 01:30:18;;;;;;;;;;;;;;;21.37;65.51;98856.88;2089468;28;20983;-46
2023/05/27 01:31:22;;;;;;;;;;;;;;;21.36;65.28;98852.50;2088561;28;19966;-49
2023/05/27 01:32:26;;;;;;;;;;;;;;;21.40;65.43;98853.75;2088541;28;19925;-50
2023/05/27 01:33:31;;;;;;;;;;;;;;;21.37;65.35;98857.72;2090119;28;20510;-47
2023/05/27 01:34:34;;;;;;;;;;;;;;;21.37;65.59;98860.41;2084136;28;19925;-50
2023/05/27 01:35:41;;;;;;;;;;;;;;;21.37;65.36;98859.59;2084434;28;19924;-49
2023/05/27 01:36:45;;;;;;;;;;;;;;;21.36;65.64;98858.72;2086637;28;20383;-50
2023/05/27 01:37:46;;;;;;;;;;;;;;;21.37;65.50;98862.28;2085878;28;19928;-50
2023/05/27 01:38:49;;;;;;;;;;;;;;;21.36;65.44;98857.88;2089757;28;20451;-48
2023/05/27 01:39:51;;;;;;;;;;;;;;;21.36;65.58;98856.00;2086436;28;19928;-46
2023/05/27 01:40:53;;;;;;;;;;;;;;;21.35;65.42;98854.38;2083463;28;19986;-46
2023/05/27 01:41:55;;;;;;;;;;;;;;;21.37;65.52;98856.88;2087647;28;20007;-48
2023/05/27 01:42:56;;;;;;;;;;;;;;;21.36;65.29;98852.50;2088331;28;19967;-48
2023/05/27 01:43:59;;;;;;;;;;;;;;;21.36;65.48;98856.00;2091956;28;19936;-51
2023/05/27 01:45:00;;;;;;;;;;;;;;;21.34;65.71;98851.88;2088388;28;20554;-49
2023/05/27 01:46:02;;;;;;;;;;;;;;;21.34;65.53;98844.63;2085445;28;20210;-48
2023/05/27 01:47:02;;;;;;;;;;;;;;;21.36;65.62;98855.19;2088703;28;19978;-51
2023/05/27 01:48:04;;;;;;;;;;;;;;;21.36;65.56;98849.78;2087662;28;19942;-46
2023/05/27 01:49:04;;;;;;;;;;;;;;;21.36;65.45;98847.09;2085235;28;20019;-52
2023/05/27 01:50:06;;;;;;;;;;;;;;;21.35;65.55;98845.44;2088524;28;19936;-50
2023/05/27 01:51:07;;;;;;;;;;;;;;;21.34;65.59;98851.88;2085266;28;20632;-48
2023/05/27 01:52:09;;;;;;;;;;;;;;;21.35;65.49;98842.75;2085146;28;19982;-48
2023/05/27 01:53:11;;;;;;;;;;;;;;;21.34;65.45;98851.88;2086915;28;19931;-46
2023/05/27 01:54:14;;;;;;;;;;;;;;;21.32;65.50;98852.09;2087707;28;21358;-48
2023/05/27 01:55:15;;;;;;;;;;;;;;;21.37;65.29;98848.81;2085588;28;19928;-50
2023/05/27 01:56:16;;;;;;;;;;;;;;;21.37;65.36;98854.19;2084722;28;19928;-48
2023/05/27 01:57:17;;;;;;;;;;;;;;;21.36;65.31;98849.78;2086466;28;20403;-48
2023/05/27 01:58:18;;;;;;;;;;;;;;;21.35;65.38;98853.53;2085858;28;19925;-47
2023/05/27 01:59:19;;;;;;;;;;;;;;;21.34;65.64;98846.47;2088120;28;20436;-46
2023/05/27 02:00:20;;;;;;;;;;;;;;;21.33;65.67;98850.22;2084261;28;19928;-46
2023/05/27 02:01:21;;;;;;;;;;;;;;;21.33;65.46;98855.63;2082234;28;19927;-48
2023/05/27 02:02:23;;;;;;;;;;;;;;;21.33;65.43;98852.94;2082537;28;19932;-48
2023/05/27 02:03:24;;;;;;;;;;;;;;;21.33;65.38;98847.53;2083141;28;22020;-48
2023/05/27 02:04:25;;;;;;;;;;;;;;;21.33;65.69;98845.66;2085494;28;19935;-47
2023/05/27 02:05:26;;;;;;;;;;;;;;;21.33;65.41;98851.03;2087528;28;19977;-46
2023/05/27 02:06:27;;;;;;;;;;;;;;;21.33;65.35;98850.22;2088809;28;20651;-47
2023/05/27 02:07:28;;;;;;;;;;;;;;;21.33;65.63;98850.22;2088021;28;20013;-49
2023/05/27 02:08:29;;;;;;;;;;;;;;;21.33;65.57;98845.66;2085401;28;20346;-48
2023/05/27 02:09:31;;;;;;;;;;;;;;;21.34;65.35;98846.47;2087061;28;19959;-46
2023/05/27 02:10:33;;;;;;;;;;;;;;;21.34;65.33;98843.78;2085722;28;20866;-47
2023/05/27 02:11:33;;;;;;;;;;;;;;;21.32;65.48;98844.00;2085525;28;19963;-46
2023/05/27 02:12:34;;;;;;;;;;;;;;;21.32;65.35;98845.88;2087997;28;19931;-46
2023/05/27 02:13:36;;;;;;;;;;;;;;;21.33;65.49;98844.81;2089302;28;19928;-49
2023/05/27 02:14:38;;;;;;;;;;;;;;;21.30;65.76;98839.88;2086305;28;19974;-48
2023/05/27 02:15:40;;;;;;;;;;;;;;;21.31;65.33;98831.56;2088462;28;19925;-50
2023/05/27 02:16:42;;;;;;;;;;;;;;;21.31;65.51;98838.81;2086850;28;19967;-48
2023/05/27 02:17:44;;;;;;;;;;;;;;;21.31;65.53;98836.97;2088661;28;19979;-50
2023/05/27 02:18:46;;;;;;;;;;;;;;;21.32;65.50;98833.22;2090870;28;20324;-50
2023/05/27 02:19:47;;;;;;;;;;;;;;;21.32;65.36;98835.09;2090471;28;19977;-49
2023/05/27 02:20:48;;;;;;;;;;;;;;;21.31;65.59;98838.81;2072846;28;19994;-47
2023/05/27 02:21:49;;;;;;;;;;;;;;;21.31;65.60;98836.13;2085363;28;19929;-50
2023/05/27 02:22:50;;;;;;;;;;;;;;;21.30;65.49;98834.47;2088182;28;20587;-47
2023/05/27 02:23:51;;;;;;;;;;;;;;;21.31;65.46;98838.81;2085895;28;19970;-49
2023/05/27 02:24:54;;;;;;;;;;;;;;;21.30;65.60;98837.16;2087825;28;19957;-49
2023/05/27 02:25:55;;;;;;;;;;;;;;;21.31;65.50;98834.28;2074769;28;20026;-49
2023/05/27 02:26:56;;;;;;;;;;;;;;;21.31;65.55;98834.28;2086473;28;19920;-49
2023/05/27 02:27:57;;;;;;;;;;;;;;;21.32;65.40;98837.78;2085047;28;20099;-47
2023/05/27 02:28:58;;;;;;;;;;;;;;;21.31;65.24;98834.28;2087719;28;20336;-50
2023/05/27 02:29:58;;;;;;;;;;;;;;;21.30;65.54;98840.69;2088859;28;20534;-48
2023/05/27 02:31:00;;;;;;;;;;;;;;;21.29;65.45;98835.53;2086252;28;19928;-48
2023/05/27 02:32:01;;;;;;;;;;;;;;;21.27;65.72;98833.03;2087697;28;20263;-46
2023/05/27 02:33:02;;;;;;;;;;;;;;;21.29;65.37;98833.66;2082363;28;19954;-49
2023/05/27 02:34:02;;;;;;;;;;;;;;;21.30;65.33;98835.28;2086335;28;20568;-50
2023/05/27 02:35:04;;;;;;;;;;;;;;;21.30;65.41;98832.59;2089700;28;19928;-48
2023/05/27 02:36:05;;;;;;;;;;;;;;;21.31;65.25;98839.66;2083132;28;19924;-47
2023/05/27 02:37:07;;;;;;;;;;;;;;;21.31;65.25;98834.28;2089894;28;19928;-47
2023/05/27 02:38:07;;;;;;;;;;;;;;;21.30;65.55;98831.78;2090096;28;20152;-46
2023/05/27 02:39:10;;;;;;;;;;;;;;;21.29;65.48;98822.84;2085588;28;21212;-49
2023/05/27 02:40:12;;;;;;;;;;;;;;;21.29;65.33;98832.84;2085782;28;19928;-49
2023/05/27 02:41:13;;;;;;;;;;;;;;;21.30;65.53;98831.78;2082710;28;19929;-46
2023/05/27 02:42:14;;;;;;;;;;;;;;;21.28;65.37;98826.59;2086606;28;19989;-49
2023/05/27 02:43:15;;;;;;;;;;;;;;;21.30;65.42;98826.38;2084007;28;19943;-50
2023/05/27 02:44:16;;;;;;;;;;;;;;;21.28;65.42;98825.75;2087183;28;19931;-47
2023/05/27 02:45:17;;;;;;;;;;;;;;;21.28;65.46;98833.84;2086378;28;19927;-50
2023/05/27 02:46:18;;;;;;;;;;;;;;;21.26;65.48;98834.09;2087626;28;19977;-46
2023/05/27 02:47:19;;;;;;;;;;;;;;;21.26;65.42;98831.38;2084950;28;20010;-47
2023/05/27 02:48:20;;;;;;;;;;;;;;;21.30;65.35;98834.47;2084049;28;20601;-46
2023/05/27 02:49:21;;;;;;;;;;;;;;;21.29;65.19;98830.97;2082694;28;19928;-47
2023/05/27 02:50:22;;;;;;;;;;;;;;;21.29;65.40;98832.84;2082450;28;20000;-47
2023/05/27 02:51:24;;;;;;;;;;;;;;;21.28;65.29;98831.16;2084674;28;20344;-51
2023/05/27 02:52:24;;;;;;;;;;;;;;;21.28;65.19;98831.97;2084618;28;20558;-49
2023/05/27 02:53:25;;;;;;;;;;;;;;;21.27;65.29;98832.22;2085506;28;19927;-51
2023/05/27 02:54:26;;;;;;;;;;;;;;;21.26;65.74;98827.88;2086024;28;20295;-47
2023/05/27 02:55:29;;;;;;;;;;;;;;;21.27;65.51;98832.22;2088718;28;19974;-49
2023/05/27 02:56:29;;;;;;;;;;;;;;;21.28;65.41;98831.16;2085788;28;19920;-48
2023/05/27 02:57:31;;;;;;;;;;;;;;;21.27;65.37;98830.34;2086090;28;19982;-48
2023/05/27 02:58:31;;;;;;;;;;;;;;;21.27;65.34;98824.13;2085447;28;19959;-49
2023/05/27 02:59:32;;;;;;;;;;;;;;;21.26;65.28;98828.69;2086149;28;19932;-47
2023/05/27 03:00:33;;;;;;;;;;;;;;;21.27;65.30;98824.94;2087126;28;20015;-52
2023/05/27 03:01:35;;;;;;;;;;;;;;;21.26;65.46;98830.56;2086739;28;19928;-48
2023/05/27 03:02:35;;;;;;;;;;;;;;;21.25;65.45;98835.13;2079907;28;19966;-50
2023/05/27 03:03:37;;;;;;;;;;;;;;;21.25;65.33;98831.59;2082263;28;19924;-47
2023/05/27 03:04:38;;;;;;;;;;;;;;;21.24;65.38;98838.88;2082828;28;19968;-50
2023/05/27 03:05:40;;;;;;;;;;;;;;;21.25;65.50;98842.38;2082338;28;19954;-49
2023/05/27 03:06:40;;;;;;;;;;;;;;;21.26;65.44;98841.34;2087662;28;19924;-50
2023/05/27 03:07:42;;;;;;;;;;;;;;;21.24;65.42;98843.44;2089946;28;19928;-46
2023/05/27 03:08:42;;;;;;;;;;;;;;;21.25;65.56;98842.38;2083507;28;20021;-48
2023/05/27 03:09:44;;;;;;;;;;;;;;;21.24;65.75;98840.75;2085851;28;21018;-46
2023/05/27 03:10:45;;;;;;;;;;;;;;;21.23;65.35;98839.06;2088272;28;19955;-49
2023/05/27 03:11:47;;;;;;;;;;;;;;;21.24;65.34;98840.75;2082863;28;19978;-50
2023/05/27 03:12:47;;;;;;;;;;;;;;;21.23;65.55;98833.66;2087312;28;20051;-48
2023/05/27 03:13:49;;;;;;;;;;;;;;;21.22;65.38;98838.25;2085498;28;21170;-47
2023/05/27 03:14:49;;;;;;;;;;;;;;;21.23;65.47;98841.75;2088981;28;19958;-49
2023/05/27 03:15:51;;;;;;;;;;;;;;;21.23;65.45;98844.47;2084709;28;20778;-47
2023/05/27 03:16:51;;;;;;;;;;;;;;;21.22;65.53;98843.63;2087177;28;20290;-48
2023/05/27 03:17:52;;;;;;;;;;;;;;;21.23;65.52;98839.06;2089629;28;19920;-47
2023/05/27 03:18:53;;;;;;;;;;;;;;;21.22;65.75;98840.94;2088098;28;19932;-50
2023/05/27 03:19:54;;;;;;;;;;;;;;;21.22;65.28;98832.03;2090813;28;19923;-49
2023/05/27 03:20:55;;;;;;;;;;;;;;;21.22;65.39;98843.63;2085940;28;19933;-47
2023/05/27 03:21:56;;;;;;;;;;;;;;;21.24;65.42;98840.75;2079289;28;20539;-48
2023/05/27 03:22:57;;;;;;;;;;;;;;;21.24;65.50;98851.53;2079679;28;19928;-48
2023/05/27 03:23:58;;;;;;;;;;;;;;;21.23;65.32;98844.47;2085879;28;19959;-48
2023/05/27 03:24:59;;;;;;;;;;;;;;;21.23;65.53;98844.47;2086597;28;20136;-51
2023/05/27 03:26:02;;;;;;;;;;;;;;;21.22;65.67;98849.03;2085515;28;19925;-50
2023/05/27 03:27:03;;;;;;;;;;;;;;;21.23;65.59;98842.63;2086030;28;20548;-47
2023/05/27 03:28:04;;;;;;;;;;;;;;;21.22;65.34;98840.13;2089254;28;19951;-46
2023/05/27 03:29:05;;;;;;;;;;;;;;;21.22;65.70;98837.41;2088354;28;19927;-49
2023/05/27 03:30:07;;;;;;;;;;;;;;;21.22;65.54;98837.41;2085059;28;20539;-48
2023/05/27 03:31:08;;;;;;;;;;;;;;;21.22;65.29;98838.25;2084847;28;19950;-48
2023/05/27 03:32:10;;;;;;;;;;;;;;;21.22;65.30;98838.25;2086777;28;19924;-46
2023/05/27 03:33:10;;;;;;;;;;;;;;;21.22;65.35;98832.03;2085894;28;19920;-50
2023/05/27 03:34:12;;;;;;;;;;;;;;;21.22;65.64;98840.94;2087702;28;20030;-47
2023/05/27 03:35:12;;;;;;;;;;;;;;;21.20;65.30;98833.09;2084760;28;19928;-49
2023/05/27 03:36:14;;;;;;;;;;;;;;;21.22;65.16;98832.03;2080714;28;19928;-47
2023/05/27 03:37:14;;;;;;;;;;;;;;;21.22;65.51;98826.63;2080503;28;19924;-49
2023/05/27 03:38:16;;;;;;;;;;;;;;;21.20;65.46;98830.38;2084555;28;19925;-46
2023/05/27 03:39:17;;;;;;;;;;;;;;;21.22;65.25;98823.94;2083591;28;19970;-46
2023/05/27 03:40:18;;;;;;;;;;;;;;;21.20;65.45;98822.28;2089578;28;19921;-49
2023/05/27 03:41:20;;;;;;;;;;;;;;;21.20;65.58;98818.75;2086199;28;19920;-47
2023/05/27 03:42:22;;;;;;;;;;;;;;;21.20;65.49;98816.03;2080451;28;19931;-47
2023/05/27 03:43:22;;;;;;;;;;;;;;;21.20;65.25;98819.59;2084753;28;19920;-49
2023/05/27 03:44:24;;;;;;;;;;;;;;;21.19;65.35;98817.91;2080783;28;19978;-50
2023/05/27 03:45:25;;;;;;;;;;;;;;;21.18;65.71;98824.38;2079332;28;19973;-47
2023/05/27 03:46:27;;;;;;;;;;;;;;;21.19;65.44;98820.63;2088402;28;19929;-49
2023/05/27 03:47:27;;;;;;;;;;;;;;;21.20;65.56;98818.75;2084580;28;19921;-47
2023/05/27 03:48:28;;;;;;;;;;;;;;;21.20;65.27;98813.34;2087217;28;20248;-49
2023/05/27 03:49:29;;;;;;;;;;;;;;;21.19;65.33;98815.22;2085844;28;19974;-48
2023/05/27 03:50:30;;;;;;;;;;;;;;;21.20;65.46;98818.75;2084366;28;19928;-48
2023/05/27 03:51:31;;;;;;;;;;;;;;;21.20;65.41;98816.91;2080926;28;20411;-50
2023/05/27 03:52:32;;;;;;;;;;;;;;;21.19;65.39;98817.09;2083492;28;19932;-47
2023/05/27 03:53:33;;;;;;;;;;;;;;;21.19;65.36;98817.91;2081214;28;19954;-49
2023/05/27 03:54:34;;;;;;;;;;;;;;;21.19;65.49;98817.91;2081115;28;19982;-46
2023/05/27 03:55:35;;;;;;;;;;;;;;;21.18;65.30;98813.59;2083121;28;19985;-48
2023/05/27 03:56:38;;;;;;;;;;;;;;;21.19;65.38;98817.91;2081505;28;19920;-48
2023/05/27 03:57:38;;;;;;;;;;;;;;;21.19;65.53;98825.19;2081042;28;19920;-50
2023/05/27 03:58:40;;;;;;;;;;;;;;;21.20;65.41;98825.00;2085058;28;19974;-47
2023/05/27 03:59:40;;;;;;;;;;;;;;;21.18;65.59;98821.66;2083442;28;19928;-47
2023/05/27 04:00:42;;;;;;;;;;;;;;;21.18;65.38;98815.47;2082957;28;20505;-48
2023/05/27 04:01:43;;;;;;;;;;;;;;;21.18;65.48;98821.66;2082618;28;19961;-49
2023/05/27 04:02:45;;;;;;;;;;;;;;;21.18;65.35;98815.47;2084668;28;19972;-51
2023/05/27 04:03:46;;;;;;;;;;;;;;;21.19;65.55;98822.50;2077676;28;21303;-47
2023/05/27 04:04:47;;;;;;;;;;;;;;;21.19;65.35;98820.63;2081759;28;19928;-48
2023/05/27 04:05:48;;;;;;;;;;;;;;;21.19;65.50;98817.91;2082068;28;19994;-48
2023/05/27 04:06:48;;;;;;;;;;;;;;;21.18;65.39;98818.97;2084124;28;19970;-49
2023/05/27 04:07:51;;;;;;;;;;;;;;;21.19;65.30;98825.19;2080082;28;20894;-47
2023/05/27 04:08:52;;;;;;;;;;;;;;;21.18;65.27;98827.06;2084521;28;19920;-48
2023/05/27 04:09:53;;;;;;;;;;;;;;;21.18;65.23;98827.06;2085937;28;19935;-48
2023/05/27 04:10:54;;;;;;;;;;;;;;;21.18;65.55;98828.94;2086542;28;20515;-49
2023/05/27 04:11:57;;;;;;;;;;;;;;;21.18;65.35;98829.75;2087250;28;19928;-50
2023/05/27 04:12:57;;;;;;;;;;;;;;;21.18;65.24;98832.47;2083433;28;19925;-49
2023/05/27 04:13:59;;;;;;;;;;;;;;;21.18;65.47;98826.25;2082440;28;19975;-47
2023/05/27 04:15:00;;;;;;;;;;;;;;;21.17;65.33;98830.81;2084556;28;19924;-48
2023/05/27 04:16:01;;;;;;;;;;;;;;;21.17;65.18;98828.13;2083147;28;19932;-48
2023/05/27 04:17:02;;;;;;;;;;;;;;;21.18;65.35;98832.47;2085688;28;20634;-51
2023/05/27 04:18:03;;;;;;;;;;;;;;;21.17;65.31;98835.34;2088849;28;19966;-48
2023/05/27 04:19:04;;;;;;;;;;;;;;;21.16;65.43;98834.53;2087695;28;19928;-48
2023/05/27 04:20:13;;;;;;;;;;;;;;;21.17;65.38;98830.81;2084655;28;19993;-47
2023/05/27 04:21:13;;;;;;;;;;;;;;;21.17;65.23;98830.81;2081966;28;19928;-48
2023/05/27 04:22:15;;;;;;;;;;;;;;;21.16;65.36;98831.84;2084441;28;20003;-47
2023/05/27 04:23:15;;;;;;;;;;;;;;;21.16;65.42;98831.03;2082888;28;19928;-47
2023/05/27 04:24:17;;;;;;;;;;;;;;;21.18;65.49;98837.03;2086896;28;20571;-50
2023/05/27 04:25:17;;;;;;;;;;;;;;;21.16;65.43;98839.94;2081121;28;19989;-46
2023/05/27 04:26:19;;;;;;;;;;;;;;;21.17;65.18;98836.22;2081872;28;19921;-47
2023/05/27 04:27:24;;;;;;;;;;;;;;;21.15;65.54;98832.91;2081758;28;21340;-48
2023/05/27 04:28:27;;;;;;;;;;;;;;;21.15;65.35;98838.28;2085302;28;20106;-49
2023/05/27 04:29:27;;;;;;;;;;;;;;;21.16;65.35;98839.94;2082001;28;19924;-46
2023/05/27 04:30:29;;;;;;;;;;;;;;;21.16;65.62;98831.03;2083007;28;19955;-48
2023/05/27 04:31:29;;;;;;;;;;;;;;;21.17;65.60;98835.34;2084964;28;19975;-48
2023/05/27 04:32:32;;;;;;;;;;;;;;;21.17;65.21;98835.34;2083849;28;20406;-48
2023/05/27 04:33:32;;;;;;;;;;;;;;;21.16;65.29;98839.94;2085955;28;19924;-50
2023/05/27 04:34:34;;;;;;;;;;;;;;;21.17;65.33;98840.75;2086722;28;20442;-48
2023/05/27 04:35:34;;;;;;;;;;;;;;;21.16;65.48;98844.50;2079954;28;20435;-47
2023/05/27 04:36:36;;;;;;;;;;;;;;;21.15;65.25;98843.69;2085697;28;19920;-47
2023/05/27 04:37:37;;;;;;;;;;;;;;;21.16;65.38;98844.50;2084020;28;19928;-46
2023/05/27 04:38:38;;;;;;;;;;;;;;;21.15;65.43;98841.00;2085489;28;20038;-48
2023/05/27 04:39:45;;;;;;;;;;;;;;;21.15;65.39;98840.16;2087571;28;19925;-46
2023/05/27 04:40:46;;;;;;;;;;;;;;;21.16;65.50;98841.81;2086664;28;19951;-49
2023/05/27 04:41:47;;;;;;;;;;;;;;;21.15;65.50;98842.88;2087053;28;20472;-51
2023/05/27 04:42:49;;;;;;;;;;;;;;;21.14;65.24;98842.00;2086353;28;19928;-50
2023/05/27 04:43:50;;;;;;;;;;;;;;;21.14;65.33;98836.63;2087586;28;19978;-48
2023/05/27 04:44:52;;;;;;;;;;;;;;;21.15;65.33;98842.88;2083505;28;19925;-49
2023/05/27 04:45:52;;;;;;;;;;;;;;;21.15;65.25;98837.47;2083662;28;19924;-47
2023/05/27 04:46:54;;;;;;;;;;;;;;;21.14;65.52;98847.41;2082841;28;19990;-46
2023/05/27 04:47:55;;;;;;;;;;;;;;;21.15;65.28;98838.28;2088355;28;19973;-48
2023/05/27 04:48:56;;;;;;;;;;;;;;;21.15;65.44;98849.06;2084943;28;19966;-48
2023/05/27 04:49:57;;;;;;;;;;;;;;;21.14;65.34;98842.00;2086416;28;19982;-49
2023/05/27 04:50:58;;;;;;;;;;;;;;;21.13;65.21;98845.75;2080847;28;19966;-49
2023/05/27 04:51:59;;;;;;;;;;;;;;;21.14;65.32;98847.41;2085772;28;20010;-47
2023/05/27 04:53:02;;;;;;;;;;;;;;;21.14;65.18;98841.19;2082175;28;20390;-47
2023/05/27 04:54:02;;;;;;;;;;;;;;;21.14;65.65;98849.28;2082192;28;19931;-47
2023/05/27 04:55:04;;;;;;;;;;;;;;;21.14;65.60;98851.97;2083890;28;20338;-47
2023/05/27 04:56:08;;;;;;;;;;;;;;;21.13;65.52;98851.16;2084128;28;19936;-47
2023/05/27 04:57:09;;;;;;;;;;;;;;;21.14;65.39;98847.41;2086177;28;20023;-47
2023/05/27 04:58:12;;;;;;;;;;;;;;;21.14;65.21;98849.28;2085551;28;19924;-48
2023/05/27 04:59:16;;;;;;;;;;;;;;;21.13;65.43;98853.84;2085304;28;19928;-49
2023/05/27 05:00:33;;;;;;;;;;;;;;;21.14;65.20;98851.97;2087136;28;19973;-47
2023/05/27 05:01:48;;;;;;;;;;;;;;;21.13;65.37;98853.84;2085109;28;20022;-46
2023/05/27 05:03:00;;;;;;;;;;;;;;;21.15;65.20;98859.03;2085285;28;19924;-47
2023/05/27 05:04:12;;;;;;;;;;;;;;;21.13;65.56;98856.56;2081940;28;19931;-48
2023/05/27 05:05:12;;;;;;;;;;;;;;;21.13;65.26;98855.72;2082672;28;19929;-47
2023/05/27 05:06:14;;;;;;;;;;;;;;;21.13;65.21;98856.56;2081004;28;19928;-48
2023/05/27 05:07:14;;;;;;;;;;;;;;;21.12;65.53;98854.09;2085380;28;19937;-47
2023/05/27 05:08:16;;;;;;;;;;;;;;;21.12;65.45;98864.88;2081614;28;20309;-48
2023/05/27 05:09:16;;;;;;;;;;;;;;;21.12;65.29;98862.19;2083356;28;19925;-47
2023/05/27 05:10:17;;;;;;;;;;;;;;;21.12;65.46;98860.28;2077961;28;20014;-49
2023/05/27 05:11:18;;;;;;;;;;;;;;;21.13;65.24;98867.34;2080364;28;19979;-47
2023/05/27 05:12:19;;;;;;;;;;;;;;;21.11;65.42;98864.03;2085585;28;19920;-47
2023/05/27 05:13:21;;;;;;;;;;;;;;;21.11;65.47;98864.03;2076753;28;19928;-48
2023/05/27 05:14:23;;;;;;;;;;;;;;;21.12;65.29;98876.47;2082869;28;19925;-48
2023/05/27 05:15:23;;;;;;;;;;;;;;;21.12;65.33;98873.78;2085112;28;19929;-49
2023/05/27 05:16:25;;;;;;;;;;;;;;;21.11;65.21;98869.41;2085116;28;19970;-47
2023/05/27 05:17:25;;;;;;;;;;;;;;;21.12;65.28;98875.66;2078809;28;20002;-47
2023/05/27 05:18:26;;;;;;;;;;;;;;;21.11;65.31;98873.97;2084271;28;19932;-47
2023/05/27 05:19:27;;;;;;;;;;;;;;;21.11;65.34;98880.19;2082309;28;19928;-49
2023/05/27 05:20:28;;;;;;;;;;;;;;;21.11;65.34;98876.69;2080151;28;19925;-48
2023/05/27 05:21:29;;;;;;;;;;;;;;;21.10;65.30;98878.56;2082686;28;19973;-49